0TS6 weather

Public forecast

Using degrees Fahrenheit for public forecast. Weather courtesy of forecast.io.

Closest aviation weather report (METAR) to Harris County Courthouse Heliport

Closest report is Sugar Land Regional Airport, 10.9 nm (20.2 km) WSW. Retrieved 2020/08/10 07:53 UTC (13 minutes ago):

KSGR 100753Z AUTO 18003KT 10SM CLR 26/24 A3005 RMK AO2 SLP174 T02560244

Closest aviation forecast (TAF) to Harris County Courthouse Heliport

Closest forecast is Sugar Land Regional Airport, 10.9 nm (20.2 km) WSW. Retrieved 2020/08/10 06:22 UTC (2 hours ago):

TAF KSGR 100520Z 1006/1106 17005KT P6SM SKC FM101300 17005KT P6SM SCT025 FM101500 19008KT P6SM SCT040 FM101900 17011KT P6SM VCSH FEW050 FM110000 17009KT P6SM FEW250